Terminal Aerodrome Forecast
Issued by NWS Sioux Falls, SD

Home | Current Version | Previous Version | Graphics & Text | Print | Product List | Glossary Off
Versions: 1 2 3 4 5 6 7 8 9 10 11 12 13 14 15 16 17 18 19 20 21

000
FTUS43 KFSD 232330
TAFHON
TAF
KHON 232330Z 2400/2424 30006KT P6SM SKC
     FM240500 26006KT P6SM SKC
     FM241600 26010KT P6SM BKN120
     FM242200 28014KT P6SM -RA BKN035=

USA.gov is the U.S. government's official web portal to all federal, state and local government web resources and services.